createdAt,value
2023-01-28T00:00:32.020Z,20.7
2023-01-28T00:15:32.419Z,20.7
2023-01-28T00:30:32.239Z,20.6
2023-01-28T00:45:32.115Z,20.6
2023-01-28T01:00:32.043Z,20.6
2023-01-28T01:15:32.579Z,20.6
2023-01-28T01:30:32.285Z,20.6
2023-01-28T01:45:32.718Z,20.5
2023-01-28T02:00:32.764Z,20.5
2023-01-28T02:15:32.440Z,20.5
2023-01-28T02:30:32.278Z,20.5
2023-01-28T02:45:32.623Z,20.5
2023-01-28T03:00:32.873Z,20.5
2023-01-28T03:15:32.595Z,20.5
2023-01-28T03:30:31.794Z,20.5
2023-01-28T03:45:31.816Z,20.5
2023-01-28T04:00:32.040Z,20.5
2023-01-28T04:15:32.397Z,20.4
2023-01-28T04:30:32.597Z,20.4
2023-01-28T04:45:31.730Z,20.4
2023-01-28T05:00:32.636Z,20.4
2023-01-28T05:15:32.316Z,20.3
2023-01-28T05:30:32.514Z,20.3
2023-01-28T05:45:32.487Z,20.3
2023-01-28T06:00:32.440Z,20.3
2023-01-28T06:15:32.321Z,20.3
2023-01-28T06:30:32.539Z,20.3
2023-01-28T06:45:32.563Z,20.3
2023-01-28T07:00:34.284Z,20.3
2023-01-28T07:15:32.017Z,20.3
2023-01-28T07:30:33.505Z,20.3
2023-01-28T07:45:31.823Z,20.3
2023-01-28T08:00:36.727Z,20.3
2023-01-28T08:15:34.119Z,20.3
2023-01-28T08:30:34.198Z,20.3
2023-01-28T08:45:32.181Z,20.3
2023-01-28T09:00:36.687Z,20.3
2023-01-28T09:15:32.374Z,20.3
2023-01-28T09:30:33.948Z,20.3
2023-01-28T09:45:32.148Z,20.3
2023-01-28T10:00:38.643Z,20.3
2023-01-28T10:15:32.804Z,20.3
2023-01-28T10:30:33.965Z,20.3
2023-01-28T10:45:32.250Z,20.4
2023-01-28T11:00:35.068Z,20.4
2023-01-28T11:15:32.176Z,20.4
2023-01-28T11:30:32.433Z,20.4
2023-01-28T11:45:32.797Z,20.5
2023-01-28T12:00:36.543Z,20.5
2023-01-28T12:15:32.652Z,20.5
2023-01-28T12:30:33.860Z,20.5
2023-01-28T12:45:32.732Z,20.5
2023-01-28T13:00:34.401Z,20.5
2023-01-28T13:15:32.601Z,20.5
2023-01-28T13:30:32.510Z,20.5
2023-01-28T13:45:33.066Z,20.5
2023-01-28T14:00:35.485Z,20.5
2023-01-28T14:15:32.235Z,20.5
2023-01-28T14:30:33.312Z,20.5
2023-01-28T14:45:32.133Z,20.5
2023-01-28T15:00:35.466Z,20.5
2023-01-28T15:15:33.005Z,20.5
2023-01-28T15:30:33.247Z,20.5
2023-01-28T15:45:31.780Z,20.4
2023-01-28T16:00:32.572Z,20.4
2023-01-28T16:15:32.436Z,20.4
2023-01-28T16:30:33.742Z,20.4
2023-01-28T16:45:32.666Z,20.3
2023-01-28T17:00:35.718Z,20.3
2023-01-28T17:15:32.507Z,20.3
2023-01-28T17:30:33.042Z,20.3
2023-01-28T17:45:32.189Z,20.3
2023-01-28T18:00:35.609Z,20.3
2023-01-28T18:15:32.172Z,20.2
2023-01-28T18:30:32.989Z,20.2
2023-01-28T18:45:32.393Z,20.2
2023-01-28T19:00:34.936Z,20.2
2023-01-28T19:15:32.373Z,20.2
2023-01-28T19:30:33.269Z,20.2
2023-01-28T19:45:31.816Z,20.2
2023-01-28T20:00:36.382Z,20.1
2023-01-28T20:15:31.751Z,20.1
2023-01-28T20:30:32.392Z,20.1
2023-01-28T20:45:32.075Z,20.1
2023-01-28T21:00:35.568Z,20.1
2023-01-28T21:15:32.365Z,20.1
2023-01-28T21:30:32.798Z,20.1
2023-01-28T21:45:32.072Z,20.1
2023-01-28T22:00:33.722Z,20.1
2023-01-28T22:15:32.569Z,20.1
2023-01-28T22:30:33.940Z,20.1
2023-01-28T22:45:31.868Z,20.0
2023-01-28T23:00:32.519Z,20.0
2023-01-28T23:15:31.836Z,20.1
2023-01-28T23:30:31.921Z,20.1
2023-01-28T23:45:32.677Z,20.2
